SBPJ

Brigadeiro Lysias Rodrigues Airport

Palmas, Brazil
TAF SBPJ 191600Z 1918/2006 12005KT 9999 FEW030 TX35/1918Z TN24/2003Z PROB40 TEMPO 1918/1921 SHRA FEW030 FEW045TCU BECMG 1921/1923 CAVOK RMK PDS
Issued Valid From Valid To
Nov-19 @ 16:00 UTC
(6 hours ago)
Nov-19 @ 18:00 UTC
(4 hours ago)
Nov-20 @ 06:00 UTC
(in 8 hours)
Expired Click to View Nov-19 @ 18:00 to Nov-19 @ 21:00
TAF SBPJ 191600Z 1918/2006 12005KT 9999 FEW030 TX35/1918Z TN24/2003Z
Wind Visibility Clouds
120° at 5 knots 10,000+ meters
  • Few at 3,000' AGL
Expired Click to View Nov-19 @ 18:00 to Nov-19 @ 21:00
PROB40 TEMPO 1918/1921 SHRA FEW030 FEW045TCU
Clouds Conditions
  • Few at 3,000' AGL
  • Few at 4,500' AGL
  • Rain
Becoming Nov-19 @ 21:00 to Nov-20 @ 06:00
BECMG 1921/1923 CAVOK RMK PDS
Wind Visibility Clouds Conditions
120° at 5 knots 10,000+ meters
  • No significant clouds
TAF SBPJ 191600Z 1918/2006 12005KT 9999 FEW030 TX35/1918Z TN24/2003Z PROB40 TEMPO 1918/1921 SHRA FEW030 FEW045TCU BECMG 1921/1923 CAVOK RMK PDS
Issued Nov-19 @ 16:00 UTC
(6 hours ago)
Valid From Nov-19 @ 18:00 UTC
(4 hours ago)
Valid To Nov-20 @ 06:00 UTC
(in 8 hours)
Nov-19 @ 18:00 - Nov-19 @ 21:00
Wind Visibility
120° at 5 knots 10,000+ meters
Clouds
  • Few at 3,000' AGL
Nov-19 @ 18:00 - Nov-19 @ 21:00
Clouds
  • Few at 3,000' AGL
  • Few at 4,500' AGL
Conditions
  • Rain
Becoming Nov-19 @ 21:00 - Nov-20 @ 06:00
Wind Visibility
120° at 5 knots 10,000+ meters
Clouds
  • No significant clouds
Conditions